Time,TemperatureF,DewpointF,PressureIn,WindDirection,WindDirectionDegrees,WindSpeedMPH,WindSpeedGustMPH,Humidity,HourlyPrecipIn,Conditions,Clouds,dailyrainin,SolarRadiationWatts/m^2,SoftwareType,DateUTC
2013-01-27 00:04:00,56.6,55.1,29.44,NNE,12,3.3,3.6,94,-99.99,,,0.00,0,rob ver 1A,2013-01-27 07:04:00,
2013-01-27 00:13:00,56.9,55.3,29.44,North,9,3.7,3.9,94,-99.99,,,0.00,0,rob ver 1A,2013-01-27 07:13:00,
2013-01-27 00:19:00,57.0,55.3,29.44,NNW,347,3.5,3.8,94,-99.99,,,0.00,0,rob ver 1B,2013-01-27 07:19:00,
2013-01-27 00:24:00,57.0,55.3,29.44,North,351,3.2,3.6,94,-99.99,,,0.00,0,rob ver 1A,2013-01-27 07:24:00,
2013-01-27 00:29:00,57.0,55.3,29.44,NNW,335,3.0,3.3,94,-99.99,,,0.00,0,rob ver 1A,2013-01-27 07:29:00,
2013-01-27 00:34:00,57.1,55.4,29.44,NNW,331,1.9,2.3,93,-99.99,,,0.00,0,rob ver 1A,2013-01-27 07:34:00,
2013-01-27 00:39:00,57.1,55.3,29.44,NNW,328,2.1,2.3,93,-99.99,,,0.00,0,rob ver 1B,2013-01-27 07:39:00,
2013-01-27 00:44:00,57.1,55.4,29.44,NW,318,3.1,3.5,93,-99.99,,,0.00,0,rob ver 1A,2013-01-27 07:44:00,
2013-01-27 00:49:00,57.0,55.3,29.44,NW,324,3.8,4.7,93,-99.99,,,0.00,0,rob ver 1A,2013-01-27 07:49:00,
2013-01-27 00:54:00,57.1,55.3,29.44,NNW,339,3.5,4.3,93,-99.99,,,0.00,0,rob ver 1A,2013-01-27 07:54:00,
2013-01-27 00:59:00,57.1,55.3,29.44,NNW,341,2.8,3.4,93,-99.99,,,0.00,0,rob ver 1A,2013-01-27 07:59:00,
2013-01-27 01:04:00,57.1,55.3,29.44,NNW,343,2.6,3.4,93,-99.99,,,0.00,0,rob ver 1A,2013-01-27 08:04:00,
2013-01-27 01:09:00,57.1,55.3,29.44,NNE,15,1.9,2.2,93,-99.99,,,0.00,0,rob ver 1A,2013-01-27 08:09:00,
2013-01-27 01:14:00,57.1,55.3,29.44,NNE,26,2.3,2.4,93,-99.99,,,0.00,0,rob ver 1A,2013-01-27 08:14:00,
2013-01-27 01:19:00,57.1,55.3,29.44,NNE,16,2.0,2.1,93,-99.99,,,0.00,0,rob ver 1A,2013-01-27 08:19:00,
2013-01-27 01:24:00,57.1,55.3,29.44,North,10,1.9,2.5,93,-99.99,,,0.00,0,rob ver 1A,2013-01-27 08:24:00,
2013-01-27 01:29:00,57.2,55.3,29.44,NE,40,2.1,2.6,93,-99.99,,,0.00,0,rob ver 1A,2013-01-27 08:29:00,
2013-01-27 01:34:00,57.1,55.2,29.44,NE,38,1.4,1.9,93,-99.99,,,0.00,0,rob ver 1A,2013-01-27 08:34:00,
2013-01-27 01:39:00,57.1,55.3,29.44,NNE,23,2.0,2.6,93,-99.99,,,0.00,0,rob ver 1A,2013-01-27 08:39:00,
2013-01-27 01:44:00,57.1,55.2,29.44,North,4,3.4,3.8,93,-99.99,,,0.00,0,rob ver 1A,2013-01-27 08:44:00,
2013-01-27 01:50:00,57.1,55.3,29.44,NNW,346,2.5,3.2,93,-99.99,,,0.00,0,rob ver 1A,2013-01-27 08:50:00,
2013-01-27 01:55:00,56.9,55.1,29.44,West,263,2.8,3.1,93,-99.99,,,0.00,0,rob ver 1A,2013-01-27 08:55:00,
2013-01-27 02:00:00,56.7,55.1,29.44,West,281,2.9,3.2,94,-99.99,,,0.00,0,rob ver 1A,2013-01-27 09:00:00,
2013-01-27 02:05:00,56.6,55.1,29.44,WNW,285,3.5,3.7,94,-99.99,,,0.00,0,rob ver 1B,2013-01-27 09:05:00,
2013-01-27 02:10:00,56.5,55.1,29.44,WNW,302,2.3,2.5,94,-99.99,,,0.00,0,rob ver 1A,2013-01-27 09:10:00,
2013-01-27 02:15:00,56.5,55.1,29.44,NNE,13,1.3,1.4,94,-99.99,,,0.00,0,rob ver 1A,2013-01-27 09:15:00,
2013-01-27 02:20:00,56.4,54.9,29.44,SSW,205,0.1,0.3,94,-99.99,,,0.00,0,rob ver 1A,2013-01-27 09:20:00,
2013-01-27 02:25:00,56.4,55.0,29.44,WSW,245,1.7,1.9,94,-99.99,,,0.00,0,rob ver 1A,2013-01-27 09:25:00,
2013-01-27 02:30:00,56.3,54.8,29.44,SW,232,2.1,2.3,94,-99.99,,,0.00,0,rob ver 1A,2013-01-27 09:30:00,
2013-01-27 02:35:00,56.2,54.9,29.44,WNW,287,3.0,3.2,95,-99.99,,,0.00,0,rob ver 1A,2013-01-27 09:35:00,
2013-01-27 02:40:00,56.2,54.9,29.44,NW,307,3.1,3.4,95,-99.99,,,0.00,0,rob ver 1A,2013-01-27 09:40:00,
2013-01-27 02:45:00,56.2,54.9,29.44,NW,326,2.2,2.5,95,-99.99,,,0.00,0,rob ver 1A,2013-01-27 09:45:00,
2013-01-27 02:50:00,56.2,54.9,29.44,NNE,21,2.3,2.5,95,-99.99,,,0.00,0,rob ver 1A,2013-01-27 09:50:00,
2013-01-27 02:55:00,56.2,54.9,29.44,NE,40,2.6,2.8,95,-99.99,,,0.00,0,rob ver 1A,2013-01-27 09:55:00,
2013-01-27 03:00:00,56.2,54.9,29.44,ENE,60,1.5,1.8,95,-99.99,,,0.00,0,rob ver 1A,2013-01-27 10:00:00,
2013-01-27 03:05:00,56.2,54.9,29.44,ENE,63,0.9,1.1,95,-99.99,,,0.00,0,rob ver 1B,2013-01-27 10:05:00,
2013-01-27 03:10:00,56.2,55.0,29.44,ENE,64,1.5,1.8,95,-99.99,,,0.00,0,rob ver 1A,2013-01-27 10:10:00,
2013-01-27 03:15:00,56.2,55.0,29.44,ENE,72,1.9,2.3,95,-99.99,,,0.00,0,rob ver 1A,2013-01-27 10:15:00,
2013-01-27 03:20:00,56.1,54.8,29.44,ENE,66,2.4,3.0,95,-99.99,,,0.00,0,rob ver 1A,2013-01-27 10:20:00,
2013-01-27 03:25:00,55.9,54.6,29.44,NE,52,2.8,3.5,95,-99.99,,,0.00,0,rob ver 1A,2013-01-27 10:25:00,
2013-01-27 03:30:00,55.7,54.4,29.44,NE,53,2.1,2.8,95,-99.99,,,0.00,0,rob ver 1B,2013-01-27 10:30:00,
2013-01-27 03:35:00,55.5,54.2,29.44,NE,43,1.6,2.1,95,-99.99,,,0.00,0,rob ver 1A,2013-01-27 10:35:00,
2013-01-27 03:40:00,55.4,54.2,29.44,NE,50,2.3,3.3,95,-99.99,,,0.00,0,rob ver 1A,2013-01-27 10:40:00,
2013-01-27 03:45:00,55.4,54.2,29.44,ENE,60,2.5,3.2,95,-99.99,,,0.00,0,rob ver 1A,2013-01-27 10:45:00,
2013-01-27 03:50:00,55.5,54.3,29.44,East,87,1.8,2.2,95,-99.99,,,0.00,0,rob ver 1A,2013-01-27 10:50:00,
2013-01-27 03:55:00,55.4,54.3,29.44,East,101,1.4,1.7,95,-99.99,,,0.00,0,rob ver 1B,2013-01-27 10:55:00,
2013-01-27 04:01:00,55.5,54.3,29.44,SE,145,1.5,1.9,95,-99.99,,,0.00,0,rob ver 1A,2013-01-27 11:01:00,
2013-01-27 04:06:00,55.3,54.2,29.44,ESE,120,2.0,2.3,95,-99.99,,,0.00,0,rob ver 1A,2013-01-27 11:06:00,
2013-01-27 04:11:00,55.3,54.2,29.44,East,97,2.2,2.5,96,-99.99,,,0.00,0,rob ver 1A,2013-01-27 11:11:00,
2013-01-27 04:16:00,55.4,54.3,29.44,East,91,2.5,3.0,96,-99.99,,,0.00,0,rob ver 1A,2013-01-27 11:16:00,
2013-01-27 04:21:00,55.5,54.4,29.44,East,86,2.8,3.8,96,-99.99,,,0.00,0,rob ver 1A,2013-01-27 11:21:00,
2013-01-27 04:26:00,55.6,54.5,29.44,ESE,120,2.2,3.0,96,-99.99,,,0.00,0,rob ver 1A,2013-01-27 11:26:00,
2013-01-27 04:31:00,55.6,54.4,29.44,ESE,120,2.2,2.5,95,-99.99,,,0.00,0,rob ver 1A,2013-01-27 11:31:00,
2013-01-27 04:36:00,55.5,54.4,29.44,ESE,108,3.9,4.4,95,-99.99,,,0.00,0,rob ver 1A,2013-01-27 11:36:00,
2013-01-27 04:41:00,55.6,54.4,29.44,East,99,4.1,4.7,95,-99.99,,,0.00,0,rob ver 1A,2013-01-27 11:41:00,
2013-01-27 04:46:00,55.6,54.4,29.44,East,90,4.9,5.5,95,-99.99,,,0.00,0,rob ver 1A,2013-01-27 11:46:00,
2013-01-27 04:51:00,55.7,54.4,29.44,ENE,71,4.2,5.2,95,-99.99,,,0.00,0,rob ver 1A,2013-01-27 11:51:00,
2013-01-27 04:56:00,55.7,54.4,29.44,ENE,67,3.3,5.2,95,-99.99,,,0.00,0,rob ver 1B,2013-01-27 11:56:00,
2013-01-27 05:01:00,55.8,54.5,29.44,ENE,60,4.8,6.2,95,-99.99,,,0.00,0,rob ver 1A,2013-01-27 12:01:00,
2013-01-27 05:06:00,55.9,54.5,29.44,ENE,68,3.7,5.0,95,-99.99,,,0.00,0,rob ver 1A,2013-01-27 12:06:00,
2013-01-27 05:11:00,55.9,54.4,29.44,ENE,67,3.6,5.0,94,-99.99,,,0.00,0,rob ver 1A,2013-01-27 12:11:00,
2013-01-27 05:16:00,55.9,54.4,29.44,ENE,64,3.3,4.2,94,-99.99,,,0.00,0,rob ver 1A,2013-01-27 12:16:00,
2013-01-27 05:21:00,55.9,54.4,29.44,ENE,61,3.9,4.7,94,-99.99,,,0.00,0,rob ver 1A,2013-01-27 12:21:00,
2013-01-27 05:26:00,55.9,54.4,29.44,ENE,60,3.6,4.9,94,-99.99,,,0.00,0,rob ver 1A,2013-01-27 12:26:00,
2013-01-27 05:31:00,56.0,54.5,29.44,ENE,67,3.2,4.6,94,-99.99,,,0.00,0,rob ver 1A,2013-01-27 12:31:00,
2013-01-27 05:36:00,56.0,54.6,29.44,ENE,67,3.3,4.3,94,-99.99,,,0.00,0,rob ver 1A,2013-01-27 12:36:00,
2013-01-27 05:41:00,56.1,54.6,29.44,ENE,65,3.6,5.0,94,-99.99,,,0.00,0,rob ver 1A,2013-01-27 12:41:00,
2013-01-27 05:46:00,56.1,54.6,29.44,ENE,65,3.1,4.7,94,-99.99,,,0.00,0,rob ver 1A,2013-01-27 12:46:00,
2013-01-27 05:51:00,56.1,54.7,29.44,ENE,65,4.3,5.5,94,-99.99,,,0.00,0,rob ver 1A,2013-01-27 12:51:00,
2013-01-27 05:56:00,56.1,54.6,29.44,ENE,68,3.6,4.7,94,-99.99,,,0.00,0,rob ver 1B,2013-01-27 12:56:00,
2013-01-27 06:01:00,56.1,54.6,29.44,ENE,61,4.3,5.8,94,-99.99,,,0.00,0,rob ver 1A,2013-01-27 13:01:00,
2013-01-27 06:06:00,56.0,54.6,29.44,ENE,63,4.4,5.6,94,-99.99,,,0.00,0,rob ver 1A,2013-01-27 13:06:00,
2013-01-27 06:11:00,56.1,54.7,29.44,ENE,65,3.5,4.7,95,-99.99,,,0.00,0,rob ver 1A,2013-01-27 13:11:00,
2013-01-27 06:16:00,56.1,54.7,29.44,ENE,67,3.2,3.8,95,-99.99,,,0.00,0,rob ver 1A,2013-01-27 13:16:00,
2013-01-27 06:21:00,56.1,54.7,29.44,ENE,77,3.6,4.2,95,-99.99,,,0.00,0,rob ver 1B,2013-01-27 13:21:00,
2013-01-27 06:26:00,56.0,54.7,29.44,ENE,76,3.7,4.2,95,-99.99,,,0.00,0,rob ver 1A,2013-01-27 13:26:00,
2013-01-27 06:32:00,56.0,54.6,29.44,ENE,76,3.4,4.0,94,-99.99,,,0.00,0,rob ver 1A,2013-01-27 13:32:00,
2013-01-27 06:37:00,56.0,54.6,29.44,East,88,3.7,4.5,95,-99.99,,,0.00,0,rob ver 1A,2013-01-27 13:37:00,
2013-01-27 06:42:00,56.0,54.6,29.44,East,82,4.0,5.1,95,-99.99,,,0.00,0,rob ver 1A,2013-01-27 13:42:00,
2013-01-27 06:47:00,56.0,54.6,29.44,ENE,78,4.4,5.5,94,-99.99,,,0.00,0,rob ver 1A,2013-01-27 13:47:00,
2013-01-27 06:52:00,56.0,54.6,29.44,East,82,3.8,5.0,94,-99.99,,,0.00,0,rob ver 1A,2013-01-27 13:52:00,
2013-01-27 06:57:00,55.9,54.5,29.44,East,92,3.3,3.8,95,-99.99,,,0.00,0,rob ver 1A,2013-01-27 13:57:00,
2013-01-27 07:02:00,55.8,54.5,29.44,East,97,3.9,4.4,95,-99.99,,,0.00,0,rob ver 1A,2013-01-27 14:02:00,
2013-01-27 07:07:00,55.8,54.4,29.44,East,85,3.9,4.6,95,-99.99,,,0.00,0,rob ver 1A,2013-01-27 14:07:00,
2013-01-27 07:12:00,55.8,54.5,29.44,East,92,4.0,4.9,95,-99.99,,,0.00,0,rob ver 1A,2013-01-27 14:12:00,
2013-01-27 07:17:00,56.0,54.6,29.44,East,96,4.1,4.7,95,-99.99,,,0.00,.164,rob ver 1A,2013-01-27 14:17:00,
2013-01-27 07:22:00,56.1,54.7,29.44,East,95,4.1,5.0,94,-99.99,,,0.00,.328,rob ver 1A,2013-01-27 14:22:00,
2013-01-27 07:27:00,56.0,54.5,29.44,ESE,122,3.4,3.7,94,-99.99,,,0.00,.985,rob ver 1A,2013-01-27 14:27:00,
2013-01-27 07:32:00,55.8,54.3,29.44,ESE,121,2.4,2.7,94,-99.99,,,0.00,1.642,rob ver 1A,2013-01-27 14:32:00,
2013-01-27 07:37:00,55.7,54.4,29.44,SE,125,2.5,2.8,95,-99.99,,,0.00,2.299,rob ver 1A,2013-01-27 14:37:00,
2013-01-27 07:42:00,55.7,54.3,29.44,ESE,104,1.3,1.4,95,-99.99,,,0.00,4.106,rob ver 1A,2013-01-27 14:42:00,
2013-01-27 07:47:00,55.6,54.3,29.44,SE,145,1.5,1.7,95,-99.99,,,0.00,10.51,rob ver 1A,2013-01-27 14:47:00,
2013-01-27 07:52:00,55.6,54.3,29.44,ESE,118,1.8,2.2,95,-99.99,,,0.00,15.77,rob ver 1A,2013-01-27 14:52:00,
2013-01-27 07:57:00,55.8,54.6,29.44,ESE,120,2.7,3.0,95,-99.99,,,0.00,51.9,rob ver 1A,2013-01-27 14:57:00,
2013-01-27 08:02:00,56.3,54.8,29.44,ESE,116,3.2,3.6,94,-99.99,,,0.00,62.91,rob ver 1A,2013-01-27 15:02:00,
2013-01-27 08:07:00,56.6,54.9,29.44,SE,125,3.1,3.7,94,-99.99,,,0.00,30.22,rob ver 1A,2013-01-27 15:07:00,
2013-01-27 08:12:00,56.4,54.7,29.44,ESE,110,3.4,4.0,94,-99.99,,,0.00,24.31,rob ver 1A,2013-01-27 15:12:00,
2013-01-27 08:17:00,56.3,54.8,29.44,East,98,2.8,3.4,94,-99.99,,,0.00,28.91,rob ver 1A,2013-01-27 15:17:00,
2013-01-27 08:22:00,56.3,54.8,29.44,ESE,112,2.8,3.2,94,-99.99,,,0.00,40.73,rob ver 1A,2013-01-27 15:22:00,
2013-01-27 08:27:00,56.3,54.8,29.44,ESE,120,2.6,3.1,94,-99.99,,,0.00,51.24,rob ver 1A,2013-01-27 15:27:00,
2013-01-27 08:32:00,56.4,54.8,29.44,ESE,111,3.1,3.4,94,-99.99,,,0.00,63.23,rob ver 1A,2013-01-27 15:32:00,
2013-01-27 08:37:00,56.5,54.9,29.47,ESE,119,2.5,2.9,94,-99.99,,,0.00,84.1,rob ver 1A,2013-01-27 15:37:00,
2013-01-27 08:42:00,56.6,55.0,29.47,SE,146,3.2,3.8,94,-99.99,,,0.00,92.6,rob ver 1A,2013-01-27 15:42:00,
2013-01-27 08:47:00,56.6,55.0,29.47,SE,135,2.8,3.1,94,-99.99,,,0.00,111.8,rob ver 1A,2013-01-27 15:47:00,
2013-01-27 08:53:00,56.6,55.0,29.47,ESE,115,2.8,3.2,94,-99.99,,,0.00,108.4,rob ver 1A,2013-01-27 15:53:00,
2013-01-27 08:58:00,56.9,55.1,29.47,ESE,123,3.1,3.6,93,-99.99,,,0.00,110.4,rob ver 1A,2013-01-27 15:58:00,
2013-01-27 09:03:00,57.3,55.3,29.47,SE,138,3.1,4.0,93,-99.99,,,0.00,155,rob ver 1B,2013-01-27 16:03:00,
2013-01-27 09:08:00,57.6,55.7,29.47,ESE,122,2.7,3.2,93,-99.99,,,0.00,242.4,rob ver 1A,2013-01-27 16:08:00,
2013-01-27 09:13:00,57.6,55.1,29.47,ESE,105,2.6,3.7,91,-99.99,,,0.00,177.7,rob ver 1A,2013-01-27 16:13:00,
2013-01-27 09:18:00,57.6,55.4,29.47,ESE,116,3.6,4.7,92,-99.99,,,0.00,206.3,rob ver 1A,2013-01-27 16:18:00,
2013-01-27 09:23:00,57.7,55.5,29.47,SE,130,3.7,4.5,92,-99.99,,,0.00,143.2,rob ver 1A,2013-01-27 16:23:00,
2013-01-27 09:28:00,57.7,55.7,29.47,SE,133,4.3,5.6,93,-99.99,,,0.00,149.8,rob ver 1B,2013-01-27 16:28:00,
2013-01-27 09:33:00,57.6,55.5,29.47,SE,136,4.9,6.1,93,-99.99,,,0.00,155.7,rob ver 1A,2013-01-27 16:33:00,
2013-01-27 09:38:00,57.8,56.0,29.47,SE,141,4.2,4.7,93,-99.99,,,0.00,156.3,rob ver 1A,2013-01-27 16:38:00,
2013-01-27 09:43:00,58.0,56.1,29.47,SE,139,4.2,5.0,93,-99.99,,,0.00,154.3,rob ver 1A,2013-01-27 16:43:00,
2013-01-27 09:48:00,57.9,56.0,29.47,SE,146,4.1,5.9,93,-99.99,,,0.00,145.8,rob ver 1A,2013-01-27 16:48:00,
2013-01-27 09:53:00,58.0,56.1,29.47,SSE,148,4.3,5.1,93,-99.99,,,0.00,126.8,rob ver 1A,2013-01-27 16:53:00,
2013-01-27 09:58:00,58.1,56.2,29.47,SSE,156,5.1,5.6,92,-99.99,,,0.00,125.3,rob ver 1A,2013-01-27 16:58:00,
2013-01-27 10:03:00,57.9,56.0,29.47,SSE,149,4.3,5.1,93,-99.99,,,0.00,134.6,rob ver 1A,2013-01-27 17:03:00,
2013-01-27 10:08:00,58.0,56.1,29.47,SSE,150,5.1,5.6,93,-99.99,,,0.00,147.1,rob ver 1A,2013-01-27 17:08:00,
2013-01-27 10:13:00,58.2,56.4,29.47,SSE,148,4.5,5.6,93,-99.99,,,0.00,179.3,rob ver 1A,2013-01-27 17:13:00,
2013-01-27 10:18:00,58.4,56.5,29.47,SSE,159,3.1,3.7,93,-99.99,,,0.00,234.5,rob ver 1A,2013-01-27 17:18:00,
2013-01-27 10:23:00,58.8,56.7,29.47,SSW,195,1.3,2.0,92,-99.99,,,0.00,203.6,rob ver 1A,2013-01-27 17:23:00,
2013-01-27 10:28:00,59.1,56.3,29.47,SE,125,2.4,3.0,90,-99.99,,,0.00,229.9,rob ver 1A,2013-01-27 17:28:00,
2013-01-27 10:33:00,59.5,56.3,29.47,SE,135,1.3,2.0,89,-99.99,,,0.00,266,rob ver 1A,2013-01-27 17:33:00,
2013-01-27 10:38:00,59.7,56.1,29.50,ESE,109,1.6,2.5,88,-99.99,,,0.00,226.7,rob ver 1A,2013-01-27 17:38:00,
2013-01-27 10:43:00,60.2,56.3,29.50,East,99,2.0,2.9,86,-99.99,,,0.00,225.3,rob ver 1A,2013-01-27 17:43:00,
2013-01-27 10:48:00,60.0,56.3,29.47,ESE,116,3.2,4.0,87,-99.99,,,0.00,332.3,rob ver 1A,2013-01-27 17:48:00,
2013-01-27 10:53:00,60.7,56.8,29.47,ESE,113,0.9,1.3,87,-99.99,,,0.00,375,rob ver 1A,2013-01-27 17:53:00,
2013-01-27 10:58:00,63.1,57.1,29.50,NW,313,0.4,0.8,79,-99.99,,,0.00,662.3,rob ver 1A,2013-01-27 17:58:00,
2013-01-27 11:03:00,62.5,55.6,29.50,SSE,164,2.9,4.7,79,-99.99,,,0.00,559.7,rob ver 1A,2013-01-27 18:03:00,
2013-01-27 11:08:00,61.8,56.6,29.50,SE,137,3.6,5.4,83,-99.99,,,0.00,397.6,rob ver 1A,2013-01-27 18:08:00,
2013-01-27 11:13:00,61.3,56.9,29.50,SE,129,2.8,3.4,85,-99.99,,,0.00,319.1,rob ver 1A,2013-01-27 18:13:00,
2013-01-27 11:18:00,61.5,56.7,29.50,SE,146,2.7,3.2,83,-99.99,,,0.00,357.4,rob ver 1B,2013-01-27 18:18:00,
2013-01-27 11:24:00,61.1,56.3,29.47,SSW,193,1.5,4.0,84,-99.99,,,0.00,319.1,rob ver 1A,2013-01-27 18:24:00,
2013-01-27 11:29:00,61.3,56.8,29.47,South,170,6.2,8.5,85,-99.99,,,0.00,340.1,rob ver 1A,2013-01-27 18:29:00,
2013-01-27 11:34:00,61.1,56.6,29.47,South,179,4.3,5.6,85,-99.99,,,0.00,302.7,rob ver 1A,2013-01-27 18:34:00,
2013-01-27 11:39:00,61.1,56.8,29.47,South,169,5.2,6.4,84,-99.99,,,0.00,240,rob ver 1A,2013-01-27 18:39:00,
2013-01-27 11:44:00,61.2,57.4,29.47,SSE,165,5.7,7.6,85,-99.99,,,0.00,238,rob ver 1A,2013-01-27 18:44:00,
2013-01-27 11:49:00,60.7,56.8,29.47,SSE,160,4.9,6.6,85,-99.99,,,0.00,250.1,rob ver 1A,2013-01-27 18:49:00,
2013-01-27 11:54:00,60.6,56.5,29.47,SSE,150,5.0,6.2,85,-99.99,,,0.00,353.3,rob ver 1B,2013-01-27 18:54:00,
2013-01-27 11:59:00,61.1,56.8,29.47,SSE,157,3.9,5.2,84,-99.99,,,0.00,719,rob ver 1A,2013-01-27 18:59:00,
2013-01-27 12:04:00,62.0,56.4,29.47,ESE,116,3.1,4.1,81,-99.99,,,0.00,494,rob ver 1A,2013-01-27 19:04:00,
2013-01-27 12:09:00,61.6,56.2,29.47,SE,136,5.3,7.2,83,-99.99,,,0.00,335.8,rob ver 1A,2013-01-27 19:09:00,
2013-01-27 12:14:00,61.8,56.8,29.47,SSE,148,7.8,9.0,81,-99.99,,,0.00,875,rob ver 1A,2013-01-27 19:14:00,
2013-01-27 12:19:00,62.4,57.1,29.47,SE,139,4.9,6.9,80,-99.99,,,0.00,704,rob ver 1A,2013-01-27 19:19:00,
2013-01-27 12:24:00,62.6,56.4,29.47,ENE,70,3.8,6.4,80,-99.99,,,0.00,707,rob ver 1A,2013-01-27 19:24:00,
2013-01-27 12:29:00,63.2,56.3,29.47,ENE,69,3.3,4.8,77,-99.99,,,0.00,682,rob ver 1A,2013-01-27 19:29:00,
2013-01-27 12:34:00,63.5,56.8,29.47,East,87,4.9,6.2,78,-99.99,,,0.00,673.1,rob ver 1A,2013-01-27 19:34:00,
2013-01-27 12:39:00,64.2,56.8,29.44,ENE,72,4.1,5.6,74,-99.99,,,0.00,613.2,rob ver 1A,2013-01-27 19:39:00,
2013-01-27 12:44:00,64.5,56.9,29.44,East,81,3.7,7.2,74,-99.99,,,0.00,691,rob ver 1A,2013-01-27 19:44:00,
2013-01-27 12:49:00,63.8,55.0,29.44,South,188,2.7,4.1,72,-99.99,,,0.00,806,rob ver 1A,2013-01-27 19:49:00,
2013-01-27 12:54:00,64.1,55.8,29.44,East,98,4.6,6.6,73,-99.99,,,0.00,800,rob ver 1A,2013-01-27 19:54:00,
2013-01-27 12:59:00,64.5,56.4,29.44,ESE,120,4.4,9.6,76,-99.99,,,0.00,505.7,rob ver 1A,2013-01-27 19:59:00,
2013-01-27 13:04:00,64.2,56.1,29.44,SE,144,5.0,7.6,76,-99.99,,,0.00,284.8,rob ver 1A,2013-01-27 20:04:00,
2013-01-27 13:09:00,63.6,56.8,29.44,SE,145,4.6,8.3,79,-99.99,,,0.00,430.7,rob ver 1A,2013-01-27 20:09:00,
2013-01-27 13:15:00,64.9,55.9,29.44,SSE,153,6.5,9.6,74,-99.99,,,0.00,743,rob ver 1A,2013-01-27 20:15:00,
2013-01-27 13:20:00,64.8,56.0,29.44,SSE,156,6.3,8.0,75,-99.99,,,0.00,702,rob ver 1A,2013-01-27 20:20:00,
2013-01-27 13:25:00,65.1,55.7,29.44,South,169,3.8,5.9,74,-99.99,,,0.00,692.5,rob ver 1A,2013-01-27 20:25:00,
2013-01-27 13:30:00,65.6,56.0,29.44,South,185,5.5,7.0,72,-99.99,,,0.00,678.2,rob ver 1A,2013-01-27 20:30:00,
2013-01-27 13:35:00,64.9,56.3,29.41,SSE,148,4.7,7.3,70,-99.99,,,0.00,191.3,rob ver 1A,2013-01-27 20:35:00,
2013-01-27 13:40:00,65.8,56.2,29.41,South,177,5.9,7.3,67,-99.99,,,0.00,653.2,rob ver 1A,2013-01-27 20:40:00,
2013-01-27 13:45:00,65.4,56.2,29.41,SE,143,5.3,7.2,70,-99.99,,,0.00,643.5,rob ver 1B,2013-01-27 20:45:00,
2013-01-27 13:50:00,65.3,56.3,29.41,ESE,104,3.3,4.5,70,-99.99,,,0.00,706,rob ver 1A,2013-01-27 20:50:00,
2013-01-27 13:55:00,66.1,55.8,29.41,SSE,159,4.8,6.3,66,-99.99,,,0.00,703,rob ver 1A,2013-01-27 20:55:00,
2013-01-27 14:00:00,66.5,56.0,29.41,South,184,6.2,9.4,68,-99.99,,,0.00,652.7,rob ver 1A,2013-01-27 21:00:00,
2013-01-27 14:05:00,66.1,55.7,29.41,SE,146,3.8,5.6,70,-99.99,,,0.00,664.3,rob ver 1A,2013-01-27 21:05:00,
2013-01-27 14:10:00,66.8,55.4,29.41,SSW,199,6.3,8.0,66,-99.99,,,0.00,219.1,rob ver 1A,2013-01-27 21:10:00,
2013-01-27 14:15:00,66.1,56.6,29.41,South,177,7.7,9.7,69,-99.99,,,0.00,731,rob ver 1A,2013-01-27 21:15:00,
2013-01-27 14:20:00,66.6,56.0,29.41,South,177,7.0,10.3,73,-99.99,,,0.00,735,rob ver 1A,2013-01-27 21:20:00,
2013-01-27 14:25:00,66.9,56.9,29.41,South,184,6.8,8.8,70,-99.99,,,0.00,719,rob ver 1A,2013-01-27 21:25:00,
2013-01-27 14:30:00,66.0,55.9,29.41,SSE,158,6.3,8.2,69,-99.99,,,0.00,588.6,rob ver 1A,2013-01-27 21:30:00,
2013-01-27 14:35:00,65.8,55.6,29.41,South,190,7.7,9.7,69,-99.99,,,0.00,216.2,rob ver 1A,2013-01-27 21:35:00,
2013-01-27 14:40:00,66.7,56.6,29.41,SSW,192,5.3,7.0,71,-99.99,,,0.00,282.1,rob ver 1A,2013-01-27 21:40:00,
2013-01-27 14:45:00,65.8,55.7,29.41,SSE,149,7.1,9.2,68,-99.99,,,0.00,201.4,rob ver 1A,2013-01-27 21:45:00,
2013-01-27 14:50:00,65.6,56.3,29.41,SSE,151,6.3,8.7,69,-99.99,,,0.00,536.9,rob ver 1A,2013-01-27 21:50:00,
2013-01-27 14:55:00,66.0,55.9,29.41,SSE,155,7.0,10.3,71,-99.99,,,0.00,690.4,rob ver 1A,2013-01-27 21:55:00,
2013-01-27 15:00:00,66.6,55.8,29.41,SSE,155,7.3,9.2,68,-99.99,,,0.00,213.5,rob ver 1A,2013-01-27 22:00:00,
2013-01-27 15:05:00,66.3,55.4,29.41,SSE,164,5.3,8.0,66,-99.99,,,0.00,183.3,rob ver 1A,2013-01-27 22:05:00,
2013-01-27 15:10:00,66.0,54.5,29.41,SSE,149,5.4,7.2,65,-99.99,,,0.00,133.2,rob ver 1A,2013-01-27 22:10:00,
2013-01-27 15:15:00,65.8,55.2,29.41,SSE,167,4.8,6.7,68,-99.99,,,0.00,197.5,rob ver 1A,2013-01-27 22:15:00,
2013-01-27 15:20:00,65.9,55.0,29.41,SE,138,5.0,6.6,69,-99.99,,,0.00,192.9,rob ver 1A,2013-01-27 22:20:00,
2013-01-27 15:25:00,65.5,54.6,29.41,East,93,4.0,5.3,67,-99.99,,,0.00,152.5,rob ver 1A,2013-01-27 22:25:00,
2013-01-27 15:31:00,65.6,55.1,29.41,ESE,109,3.5,4.3,69,-99.99,,,0.00,163.4,rob ver 1A,2013-01-27 22:31:00,
2013-01-27 15:36:00,66.4,55.2,29.38,ENE,67,4.4,5.7,68,-99.99,,,0.00,600.8,rob ver 1A,2013-01-27 22:36:00,
2013-01-27 15:41:00,67.1,55.7,29.38,ENE,65,1.7,2.4,65,-99.99,,,0.00,191.9,rob ver 1A,2013-01-27 22:41:00,
2013-01-27 15:46:00,66.8,55.1,29.38,ESE,104,1.0,1.6,66,-99.99,,,0.00,153.9,rob ver 1A,2013-01-27 22:46:00,
2013-01-27 15:51:00,66.8,55.3,29.38,SSE,160,3.3,6.2,66,-99.99,,,0.00,163.4,rob ver 1A,2013-01-27 22:51:00,
2013-01-27 15:56:00,67.2,54.4,29.38,SSE,160,4.1,4.9,64,-99.99,,,0.00,491.4,rob ver 1A,2013-01-27 22:56:00,
2013-01-27 16:01:00,67.9,53.6,29.38,South,182,3.8,5.1,60,-99.99,,,0.00,505.6,rob ver 1B,2013-01-27 23:01:00,
2013-01-27 16:06:00,68.0,54.1,29.38,ESE,117,5.4,7.9,61,-99.99,,,0.00,211.9,rob ver 1A,2013-01-27 23:06:00,
2013-01-27 16:11:00,67.6,53.8,29.38,ESE,108,6.1,8.2,62,-99.99,,,0.00,464.1,rob ver 1A,2013-01-27 23:11:00,
2013-01-27 16:16:00,67.9,53.9,29.38,ESE,117,5.4,7.8,61,-99.99,,,0.00,450.9,rob ver 1A,2013-01-27 23:16:00,
2013-01-27 16:21:00,68.1,54.9,29.38,ESE,121,4.9,6.9,63,-99.99,,,0.00,418.6,rob ver 1A,2013-01-27 23:21:00,
2013-01-27 16:26:00,68.0,54.2,29.38,ESE,109,6.4,8.1,61,-99.99,,,0.00,422.5,rob ver 1A,2013-01-27 23:26:00,
2013-01-27 16:31:00,68.3,53.1,29.38,South,190,7.8,9.0,58,-99.99,,,0.00,333.6,rob ver 1A,2013-01-27 23:31:00,
2013-01-27 16:36:00,68.1,53.2,29.38,South,177,10.8,12.8,59,-99.99,,,0.00,294.9,rob ver 1A,2013-01-27 23:36:00,
2013-01-27 16:41:00,68.0,52.6,29.38,South,185,10.4,12.3,58,-99.99,,,0.00,200.1,rob ver 1A,2013-01-27 23:41:00,
2013-01-27 16:46:00,67.9,52.6,29.38,South,179,11.1,13.2,57,-99.99,,,0.00,239.8,rob ver 1A,2013-01-27 23:46:00,
2013-01-27 16:51:00,68.0,52.7,29.38,South,189,10.8,13.6,57,-99.99,,,0.00,178.4,rob ver 1A,2013-01-27 23:51:00,
2013-01-27 16:56:00,67.5,53.0,29.38,SSE,168,9.5,12.3,60,-99.99,,,0.00,64.62,rob ver 1A,2013-01-27 23:56:00,
2013-01-27 17:01:00,67.3,53.3,29.38,South,173,8.2,10.5,60,-99.99,,,0.00,86.9,rob ver 1A,2013-01-28 00:01:00,
2013-01-27 17:06:00,67.0,53.0,29.38,South,175,9.2,10.8,60,-99.99,,,0.00,55.1,rob ver 1A,2013-01-28 00:06:00,
2013-01-27 17:11:00,66.9,52.6,29.38,South,169,10.2,12.2,60,-99.99,,,0.00,132.4,rob ver 1A,2013-01-28 00:11:00,
2013-01-27 17:16:00,66.9,53.3,29.38,South,174,8.5,10.8,60,-99.99,,,0.00,46.09,rob ver 1A,2013-01-28 00:16:00,
2013-01-27 17:21:00,66.7,53.0,29.38,South,169,9.0,10.5,59,-99.99,,,0.00,40.18,rob ver 1A,2013-01-28 00:21:00,
2013-01-27 17:26:00,66.6,52.8,29.38,South,179,10.0,11.7,62,-99.99,,,0.00,36.41,rob ver 1A,2013-01-28 00:26:00,
2013-01-27 17:31:00,66.4,53.2,29.38,South,178,10.3,12.5,61,-99.99,,,0.00,33.46,rob ver 1A,2013-01-28 00:31:00,
2013-01-27 17:37:00,66.1,53.7,29.38,South,177,9.9,12.5,62,-99.99,,,0.00,30.18,rob ver 1A,2013-01-28 00:37:00,
2013-01-27 17:41:00,66.0,53.7,29.38,South,173,9.0,10.9,64,-99.99,,,0.00,24.28,rob ver 1B,2013-01-28 00:41:00,
2013-01-27 17:47:00,65.8,53.8,29.38,South,173,7.5,9.0,65,-99.99,,,0.00,19.03,rob ver 1A,2013-01-28 00:47:00,
2013-01-27 17:52:00,65.7,53.5,29.38,South,174,9.6,10.8,64,-99.99,,,0.00,21,rob ver 1A,2013-01-28 00:52:00,
2013-01-27 17:57:00,65.5,54.0,29.38,South,172,9.0,11.7,65,-99.99,,,0.00,13.62,rob ver 1A,2013-01-28 00:57:00,
2013-01-27 18:02:00,65.3,53.9,29.38,SSE,165,8.8,10.2,66,-99.99,,,0.00,6.563,rob ver 1A,2013-01-28 01:02:00,
2013-01-27 18:07:00,65.1,54.2,29.38,South,175,6.8,8.6,68,-99.99,,,0.00,3.938,rob ver 1A,2013-01-28 01:07:00,
2013-01-27 18:12:00,65.0,54.4,29.38,South,186,8.5,10.2,68,-99.99,,,0.00,4.594,rob ver 1A,2013-01-28 01:12:00,
2013-01-27 18:17:00,64.8,54.5,29.38,South,181,7.8,9.7,69,-99.99,,,0.00,2.625,rob ver 1A,2013-01-28 01:17:00,
2013-01-27 18:22:00,64.4,54.8,29.38,SSW,194,5.7,7.6,70,-99.99,,,0.00,.984,rob ver 1A,2013-01-28 01:22:00,
2013-01-27 18:27:00,64.5,54.6,29.38,South,184,5.7,7.4,71,-99.99,,,0.00,.164,rob ver 1A,2013-01-28 01:27:00,
2013-01-27 18:32:00,64.1,55.2,29.38,South,177,5.1,5.8,72,-99.99,,,0.00,0,rob ver 1A,2013-01-28 01:32:00,
2013-01-27 18:37:00,63.9,55.1,29.38,South,177,4.7,6.4,72,-99.99,,,0.00,0,rob ver 1A,2013-01-28 01:37:00,
2013-01-27 18:42:00,63.8,54.8,29.38,South,188,4.4,5.2,72,-99.99,,,0.00,0,rob ver 1A,2013-01-28 01:42:00,
2013-01-27 18:47:00,63.7,54.8,29.38,South,189,3.5,4.5,72,-99.99,,,0.00,0,rob ver 1A,2013-01-28 01:47:00,
2013-01-27 18:52:00,63.6,54.9,29.38,South,187,4.9,6.2,72,-99.99,,,0.00,0,rob ver 1A,2013-01-28 01:52:00,
2013-01-27 18:57:00,63.4,55.2,29.38,SSW,205,5.3,6.5,74,-99.99,,,0.00,0,rob ver 1A,2013-01-28 01:57:00,
2013-01-27 19:02:00,63.3,55.4,29.38,SSW,204,7.8,9.1,75,-99.99,,,0.00,0,rob ver 1A,2013-01-28 02:02:00,
2013-01-27 19:07:00,63.1,55.6,29.38,SSW,199,6.2,8.0,76,-99.99,,,0.00,0,rob ver 1A,2013-01-28 02:07:00,
2013-01-27 19:12:00,63.2,55.6,29.38,South,180,10.3,12.1,76,-99.99,,,0.00,0,rob ver 1A,2013-01-28 02:12:00,
2013-01-27 19:17:00,63.2,55.7,29.38,South,176,8.8,10.3,76,-99.99,,,0.00,0,rob ver 1A,2013-01-28 02:17:00,
2013-01-27 19:22:00,63.0,55.9,29.38,South,179,8.7,10.6,77,-99.99,,,0.00,0,rob ver 1A,2013-01-28 02:22:00,
2013-01-27 19:27:00,63.0,55.9,29.38,South,176,8.4,9.9,78,-99.99,,,0.00,0,rob ver 1A,2013-01-28 02:27:00,
2013-01-27 19:32:00,62.8,56.6,29.38,SSW,210,6.5,8.2,80,-99.99,,,0.00,0,rob ver 1A,2013-01-28 02:32:00,
2013-01-27 19:37:00,62.3,57.1,29.38,WSW,246,7.2,8.3,83,-99.99,,,0.00,0,rob ver 1A,2013-01-28 02:37:00,
2013-01-27 19:42:00,61.8,57.2,29.38,West,263,10.2,13.5,84,-99.99,,,0.00,0,rob ver 1A,2013-01-28 02:42:00,
2013-01-27 19:48:00,60.5,55.9,29.38,SW,232,10.8,14.1,81,-99.99,,,0.00,0,rob ver 1A,2013-01-28 02:48:00,
2013-01-27 19:53:00,60.0,54.2,29.38,West,270,11.4,14.3,79,-99.99,,,0.00,0,rob ver 1A,2013-01-28 02:53:00,
2013-01-27 19:58:00,59.4,51.8,29.38,West,265,10.8,13.5,72,-99.99,,,0.00,0,rob ver 1A,2013-01-28 02:58:00,
2013-01-27 20:03:00,59.9,49.7,29.41,WSW,257,11.3,13.3,70,-99.99,,,0.00,0,rob ver 1A,2013-01-28 03:03:00,
2013-01-27 20:08:00,58.8,50.4,29.41,SW,231,15.3,18.3,73,-99.99,,,0.01,0,rob ver 1A,2013-01-28 03:08:00,
2013-01-27 20:13:00,56.2,50.2,29.41,SW,217,10.9,12.5,79,-99.99,,,0.00,0,rob ver 1A,2013-01-28 03:13:00,
2013-01-27 20:18:00,55.6,50.4,29.41,SSW,195,9.3,11.8,80,-99.99,,,0.01,0,rob ver 1A,2013-01-28 03:18:00,
2013-01-27 20:23:00,57.4,48.8,29.41,WSW,250,9.7,12.5,70,-99.99,,,0.01,0,rob ver 1A,2013-01-28 03:23:00,
2013-01-27 20:28:00,57.7,47.3,29.41,West,264,12.0,14.0,67,-99.99,,,0.00,0,rob ver 1A,2013-01-28 03:28:00,
2013-01-27 20:33:00,57.0,49.5,29.41,WSW,246,8.7,11.1,76,-99.99,,,0.00,0,rob ver 1A,2013-01-28 03:33:00,
2013-01-27 20:38:00,56.7,49.2,29.41,WSW,255,6.0,7.3,76,-99.99,,,0.00,0,rob ver 1A,2013-01-28 03:38:00,
2013-01-27 20:44:00,57.1,48.9,29.41,West,265,6.7,8.1,74,-99.99,,,0.00,0,rob ver 1A,2013-01-28 03:44:00,
2013-01-27 20:49:00,57.1,49.9,29.41,West,265,5.5,7.4,76,-99.99,,,0.00,0,rob ver 1A,2013-01-28 03:49:00,
2013-01-27 20:54:00,57.2,49.2,29.41,West,274,5.1,5.8,74,-99.99,,,0.00,0,rob ver 1A,2013-01-28 03:54:00,
2013-01-27 20:59:00,57.2,48.9,29.41,West,268,5.3,6.3,74,-99.99,,,0.00,0,rob ver 1A,2013-01-28 03:59:00,
2013-01-27 21:04:00,56.9,49.4,29.41,West,276,4.1,5.3,75,-99.99,,,0.00,0,rob ver 1A,2013-01-28 04:04:00,
2013-01-27 21:09:00,56.9,47.4,29.41,WSW,254,5.3,7.1,70,-99.99,,,0.00,0,rob ver 1A,2013-01-28 04:09:00,
2013-01-27 21:14:00,57.3,45.1,29.41,WSW,238,7.4,9.3,62,-99.99,,,0.00,0,rob ver 1A,2013-01-28 04:14:00,
2013-01-27 21:19:00,57.2,44.7,29.41,WSW,238,6.3,7.9,64,-99.99,,,0.16,0,rob ver 1B,2013-01-28 04:19:00,
2013-01-27 21:24:00,57.1,44.3,29.41,WSW,255,6.9,8.7,61,-99.99,,,0.00,0,rob ver 1A,2013-01-28 04:24:00,
2013-01-27 21:29:00,57.1,43.5,29.41,WSW,257,10.3,12.6,60,-99.99,,,0.00,0,rob ver 1A,2013-01-28 04:29:00,
2013-01-27 21:34:00,56.9,43.0,29.41,WSW,256,10.9,12.8,60,-99.99,,,0.00,0,rob ver 1A,2013-01-28 04:34:00,
2013-01-27 21:39:00,56.9,43.1,29.41,WSW,245,8.3,10.7,62,-99.99,,,0.00,0,rob ver 1A,2013-01-28 04:39:00,
2013-01-27 21:44:00,56.8,43.2,29.41,WSW,237,7.1,9.5,58,-99.99,,,0.00,0,rob ver 1A,2013-01-28 04:44:00,
2013-01-27 21:49:00,56.7,43.6,29.41,WSW,241,7.7,9.1,62,-99.99,,,0.00,0,rob ver 1A,2013-01-28 04:49:00,
2013-01-27 21:54:00,56.5,43.6,29.41,WSW,241,5.3,6.9,62,-99.99,,,0.00,0,rob ver 1A,2013-01-28 04:54:00,
2013-01-27 21:59:00,56.5,42.5,29.44,WSW,250,8.0,9.8,57,-99.99,,,0.00,0,rob ver 1A,2013-01-28 04:59:00,
2013-01-27 22:00:00,56.5,42.5,29.44,WSW,250,8.0,9.8,57,-99.99,,,0.16,0,rob ver 1B,2013-01-28 05:00:00,
2013-01-27 22:01:00,56.5,41.8,29.44,WSW,244,10.9,12.7,58,-99.99,,,0.00,0,rob ver 1A,2013-01-28 05:01:00,
2013-01-27 22:04:00,56.3,41.8,29.44,WSW,251,9.0,11.5,59,-99.99,,,0.00,0,rob ver 1A,2013-01-28 05:04:00,
2013-01-27 22:09:00,56.1,42.0,29.44,SW,234,6.8,8.7,58,-99.99,,,0.00,0,rob ver 1A,2013-01-28 05:09:00,
2013-01-27 22:15:00,56.2,40.7,29.44,WSW,253,5.8,7.3,58,-99.99,,,0.00,0,rob ver 1A,2013-01-28 05:15:00,
2013-01-27 22:20:00,56.0,43.0,29.44,West,261,5.7,7.2,64,-99.99,,,0.00,0,rob ver 1A,2013-01-28 05:20:00,
2013-01-27 22:25:00,55.7,42.6,29.44,West,261,5.4,6.4,62,-99.99,,,0.00,0,rob ver 1A,2013-01-28 05:25:00,
2013-01-27 22:30:00,55.6,40.9,29.44,WSW,240,8.1,9.7,59,-99.99,,,0.00,0,rob ver 1A,2013-01-28 05:30:00,
2013-01-27 22:35:00,55.7,40.2,29.44,WSW,244,8.3,10.7,54,-99.99,,,0.00,0,rob ver 1A,2013-01-28 05:35:00,
2013-01-27 22:40:00,55.3,39.2,29.44,WSW,245,9.6,11.7,51,-99.99,,,0.00,0,rob ver 1A,2013-01-28 05:40:00,
2013-01-27 22:45:00,55.0,39.7,29.44,WSW,241,9.4,11.3,53,-99.99,,,0.16,0,rob ver 1B,2013-01-28 05:45:00,
2013-01-27 22:50:00,54.8,37.9,29.44,West,262,11.6,14.0,52,-99.99,,,0.00,0,rob ver 1A,2013-01-28 05:50:00,
2013-01-27 22:55:00,54.3,37.9,29.44,WSW,247,12.2,14.6,52,-99.99,,,0.00,0,rob ver 1A,2013-01-28 05:55:00,
2013-01-27 23:00:00,54.2,39.0,29.44,West,263,8.8,11.7,54,-99.99,,,0.00,0,rob ver 1A,2013-01-28 06:00:00,
2013-01-27 23:05:00,53.9,38.5,29.44,WSW,251,9.9,11.9,55,-99.99,,,0.00,0,rob ver 1A,2013-01-28 06:05:00,
2013-01-27 23:10:00,53.7,39.8,29.44,WSW,254,7.9,9.6,61,-99.99,,,0.16,0,rob ver 1B,2013-01-28 06:10:00,
2013-01-27 23:15:00,53.4,38.1,29.44,WSW,253,11.3,14.1,56,-99.99,,,0.00,0,rob ver 1A,2013-01-28 06:15:00,
2013-01-27 23:20:00,53.2,38.9,29.44,WSW,256,9.7,12.2,57,-99.99,,,0.00,0,rob ver 1A,2013-01-28 06:20:00,
2013-01-27 23:25:00,53.0,38.6,29.44,WSW,256,9.1,11.2,58,-99.99,,,0.00,0,rob ver 1A,2013-01-28 06:25:00,
2013-01-27 23:30:00,53.0,37.7,29.44,West,261,10.6,12.8,54,-99.99,,,0.00,0,rob ver 1A,2013-01-28 06:30:00,
2013-01-27 23:35:00,52.7,38.5,29.44,West,262,9.2,11.5,57,-99.99,,,0.16,0,rob ver 1B,2013-01-28 06:35:00,
2013-01-27 23:41:00,52.5,38.2,29.44,West,259,9.8,12.0,59,-99.99,,,0.00,0,rob ver 1A,2013-01-28 06:41:00,
2013-01-27 23:46:00,52.4,37.1,29.44,WSW,255,11.6,14.0,57,-99.99,,,0.00,0,rob ver 1A,2013-01-28 06:46:00,
2013-01-27 23:51:00,52.3,38.5,29.44,West,263,7.8,9.3,59,-99.99,,,0.00,0,rob ver 1A,2013-01-28 06:51:00,
2013-01-27 23:56:00,52.4,37.1,29.44,West,264,12.5,14.8,57,-99.99,,,0.00,0,rob ver 1A,2013-01-28 06:56:00,